sensor_id;sensor_type;location;lat;lon;timestamp;temperature;humidity
36186;DHT22;22228;53.222;7.446;2022-09-06T00:01:17;19.10;99.90
36186;DHT22;22228;53.222;7.446;2022-09-06T00:03:37;19.00;99.90
36186;DHT22;22228;53.222;7.446;2022-09-06T00:05:58;19.00;99.90
36186;DHT22;22228;53.222;7.446;2022-09-06T00:08:18;18.90;99.90
36186;DHT22;22228;53.222;7.446;2022-09-06T00:10:39;18.90;99.90
36186;DHT22;22228;53.222;7.446;2022-09-06T00:13:01;18.90;99.90
36186;DHT22;22228;53.222;7.446;2022-09-06T00:15:22;18.90;99.90
36186;DHT22;22228;53.222;7.446;2022-09-06T00:17:43;18.90;99.90
36186;DHT22;22228;53.222;7.446;2022-09-06T00:20:05;18.80;99.90
36186;DHT22;22228;53.222;7.446;2022-09-06T00:22:27;18.80;99.90
36186;DHT22;22228;53.222;7.446;2022-09-06T00:24:47;18.70;99.90
36186;DHT22;22228;53.222;7.446;2022-09-06T00:27:08;18.70;99.90
36186;DHT22;22228;53.222;7.446;2022-09-06T00:29:29;18.70;99.90
36186;DHT22;22228;53.222;7.446;2022-09-06T00:31:49;18.60;99.90
36186;DHT22;22228;53.222;7.446;2022-09-06T00:34:11;18.60;99.90
36186;DHT22;22228;53.222;7.446;2022-09-06T00:36:32;18.60;99.90
36186;DHT22;22228;53.222;7.446;2022-09-06T00:38:52;18.50;99.90
36186;DHT22;22228;53.222;7.446;2022-09-06T00:41:14;18.50;99.90
36186;DHT22;22228;53.222;7.446;2022-09-06T00:43:35;18.50;99.90
36186;DHT22;22228;53.222;7.446;2022-09-06T00:45:55;18.50;99.90
36186;DHT22;22228;53.222;7.446;2022-09-06T00:48:16;18.40;99.90
36186;DHT22;22228;53.222;7.446;2022-09-06T00:50:38;18.30;99.90
36186;DHT22;22228;53.222;7.446;2022-09-06T00:52:58;18.30;99.90
36186;DHT22;22228;53.222;7.446;2022-09-06T00:55:20;18.30;99.90
36186;DHT22;22228;53.222;7.446;2022-09-06T00:57:41;18.20;99.90
36186;DHT22;22228;53.222;7.446;2022-09-06T01:00:02;18.20;99.90
36186;DHT22;22228;53.222;7.446;2022-09-06T01:02:23;18.10;99.90
36186;DHT22;22228;53.222;7.446;2022-09-06T01:04:44;18.10;99.90
36186;DHT22;22228;53.222;7.446;2022-09-06T01:07:15;18.00;99.90
36186;DHT22;22228;53.222;7.446;2022-09-06T01:09:49;18.00;99.90
36186;DHT22;22228;53.222;7.446;2022-09-06T01:12:23;18.00;99.90
36186;DHT22;22228;53.222;7.446;2022-09-06T01:14:54;17.90;99.90
36186;DHT22;22228;53.222;7.446;2022-09-06T01:17:27;17.90;99.90
36186;DHT22;22228;53.222;7.446;2022-09-06T01:20:09;18.00;99.90
36186;DHT22;22228;53.222;7.446;2022-09-06T01:22:58;18.00;99.90
36186;DHT22;22228;53.222;7.446;2022-09-06T01:25:34;17.90;99.90
36186;DHT22;22228;53.222;7.446;2022-09-06T01:28:22;17.90;99.90
36186;DHT22;22228;53.222;7.446;2022-09-06T01:30:49;18.00;99.90
36186;DHT22;22228;53.222;7.446;2022-09-06T01:33:15;18.00;99.90
36186;DHT22;22228;53.222;7.446;2022-09-06T01:35:40;18.00;99.90
36186;DHT22;22228;53.222;7.446;2022-09-06T01:38:02;18.00;99.90
36186;DHT22;22228;53.222;7.446;2022-09-06T01:40:23;17.90;99.90
36186;DHT22;22228;53.222;7.446;2022-09-06T01:42:45;17.90;99.90
36186;DHT22;22228;53.222;7.446;2022-09-06T01:45:11;17.80;99.90
36186;DHT22;22228;53.222;7.446;2022-09-06T01:47:37;17.80;99.90
36186;DHT22;22228;53.222;7.446;2022-09-06T01:50:20;17.80;99.90
36186;DHT22;22228;53.222;7.446;2022-09-06T01:52:53;17.80;99.90
36186;DHT22;22228;53.222;7.446;2022-09-06T01:55:20;17.80;99.90
36186;DHT22;22228;53.222;7.446;2022-09-06T01:57:54;17.80;99.90
36186;DHT22;22228;53.222;7.446;2022-09-06T02:00:19;17.80;99.90
36186;DHT22;22228;53.222;7.446;2022-09-06T02:02:53;17.70;99.90
36186;DHT22;22228;53.222;7.446;2022-09-06T02:05:21;17.70;99.90
36186;DHT22;22228;53.222;7.446;2022-09-06T02:07:43;17.70;99.90
36186;DHT22;22228;53.222;7.446;2022-09-06T02:10:07;17.60;99.90
36186;DHT22;22228;53.222;7.446;2022-09-06T02:12:31;17.60;99.90
36186;DHT22;22228;53.222;7.446;2022-09-06T02:14:57;17.60;99.90
36186;DHT22;22228;53.222;7.446;2022-09-06T02:17:25;17.60;99.90
36186;DHT22;22228;53.222;7.446;2022-09-06T02:19:48;17.60;99.90
36186;DHT22;22228;53.222;7.446;2022-09-06T02:22:14;17.60;99.90
36186;DHT22;22228;53.222;7.446;2022-09-06T02:24:36;17.60;99.90
36186;DHT22;22228;53.222;7.446;2022-09-06T02:26:58;17.60;99.90
36186;DHT22;22228;53.222;7.446;2022-09-06T02:29:19;17.60;99.90
36186;DHT22;22228;53.222;7.446;2022-09-06T02:31:42;17.60;99.90
36186;DHT22;22228;53.222;7.446;2022-09-06T02:34:05;17.60;99.90
36186;DHT22;22228;53.222;7.446;2022-09-06T02:36:26;17.60;99.90
36186;DHT22;22228;53.222;7.446;2022-09-06T02:38:48;17.60;99.90
36186;DHT22;22228;53.222;7.446;2022-09-06T02:41:09;17.60;99.90
36186;DHT22;22228;53.222;7.446;2022-09-06T02:43:30;17.60;99.90
36186;DHT22;22228;53.222;7.446;2022-09-06T02:45:50;17.60;99.90
36186;DHT22;22228;53.222;7.446;2022-09-06T02:48:11;17.60;99.90
36186;DHT22;22228;53.222;7.446;2022-09-06T02:50:33;17.60;99.90
36186;DHT22;22228;53.222;7.446;2022-09-06T02:53:03;17.60;99.90
36186;DHT22;22228;53.222;7.446;2022-09-06T02:55:23;17.70;99.90
36186;DHT22;22228;53.222;7.446;2022-09-06T02:57:44;17.70;99.90
36186;DHT22;22228;53.222;7.446;2022-09-06T03:00:05;17.70;99.90
36186;DHT22;22228;53.222;7.446;2022-09-06T03:02:25;17.70;99.90
36186;DHT22;22228;53.222;7.446;2022-09-06T03:04:46;17.70;99.90
36186;DHT22;22228;53.222;7.446;2022-09-06T03:07:08;17.70;99.90
36186;DHT22;22228;53.222;7.446;2022-09-06T03:09:28;17.70;99.90
36186;DHT22;22228;53.222;7.446;2022-09-06T03:11:49;17.70;99.90
36186;DHT22;22228;53.222;7.446;2022-09-06T03:14:09;17.70;99.90
36186;DHT22;22228;53.222;7.446;2022-09-06T03:16:29;17.70;99.90
36186;DHT22;22228;53.222;7.446;2022-09-06T03:18:50;17.70;99.90
36186;DHT22;22228;53.222;7.446;2022-09-06T03:21:11;17.70;99.90
36186;DHT22;22228;53.222;7.446;2022-09-06T03:23:33;17.70;99.90
36186;DHT22;22228;53.222;7.446;2022-09-06T03:25:53;17.70;99.90
36186;DHT22;22228;53.222;7.446;2022-09-06T03:28:14;17.70;99.90
36186;DHT22;22228;53.222;7.446;2022-09-06T03:30:35;17.80;99.90
36186;DHT22;22228;53.222;7.446;2022-09-06T03:32:56;17.80;99.90
36186;DHT22;22228;53.222;7.446;2022-09-06T03:35:17;17.70;99.90
36186;DHT22;22228;53.222;7.446;2022-09-06T03:37:38;17.70;99.90
36186;DHT22;22228;53.222;7.446;2022-09-06T03:40:00;17.70;99.90
36186;DHT22;22228;53.222;7.446;2022-09-06T03:42:21;17.80;99.90
36186;DHT22;22228;53.222;7.446;2022-09-06T03:44:41;17.80;99.90
36186;DHT22;22228;53.222;7.446;2022-09-06T03:47:02;17.80;99.90
36186;DHT22;22228;53.222;7.446;2022-09-06T03:49:23;17.70;99.90
36186;DHT22;22228;53.222;7.446;2022-09-06T03:51:43;17.70;99.90
36186;DHT22;22228;53.222;7.446;2022-09-06T03:54:04;17.70;99.90
36186;DHT22;22228;53.222;7.446;2022-09-06T03:56:26;17.70;99.90
36186;DHT22;22228;53.222;7.446;2022-09-06T03:58:47;17.70;99.90
36186;DHT22;22228;53.222;7.446;2022-09-06T04:01:09;17.60;99.90
36186;DHT22;22228;53.222;7.446;2022-09-06T04:03:30;17.60;99.90
36186;DHT22;22228;53.222;7.446;2022-09-06T04:05:51;17.60;99.90
36186;DHT22;22228;53.222;7.446;2022-09-06T04:08:12;17.60;99.90
36186;DHT22;22228;53.222;7.446;2022-09-06T04:10:32;17.60;99.90
36186;DHT22;22228;53.222;7.446;2022-09-06T04:12:54;17.60;99.90
36186;DHT22;22228;53.222;7.446;2022-09-06T04:15:15;17.60;99.90
36186;DHT22;22228;53.222;7.446;2022-09-06T04:17:35;17.60;99.90
36186;DHT22;22228;53.222;7.446;2022-09-06T04:19:56;17.60;99.90
36186;DHT22;22228;53.222;7.446;2022-09-06T04:22:16;17.60;99.90
36186;DHT22;22228;53.222;7.446;2022-09-06T04:24:37;17.60;99.90
36186;DHT22;22228;53.222;7.446;2022-09-06T04:26:57;17.60;99.90
36186;DHT22;22228;53.222;7.446;2022-09-06T04:29:19;17.60;99.90
36186;DHT22;22228;53.222;7.446;2022-09-06T04:31:40;17.60;99.90
36186;DHT22;22228;53.222;7.446;2022-09-06T04:34:00;17.60;99.90
36186;DHT22;22228;53.222;7.446;2022-09-06T04:36:20;17.60;99.90
36186;DHT22;22228;53.222;7.446;2022-09-06T04:38:43;17.60;99.90
36186;DHT22;22228;53.222;7.446;2022-09-06T04:41:04;17.60;99.90
36186;DHT22;22228;53.222;7.446;2022-09-06T04:43:25;17.60;99.90
36186;DHT22;22228;53.222;7.446;2022-09-06T04:45:47;17.60;99.90
36186;DHT22;22228;53.222;7.446;2022-09-06T04:48:07;17.60;99.90
36186;DHT22;22228;53.222;7.446;2022-09-06T04:50:28;17.60;99.90
36186;DHT22;22228;53.222;7.446;2022-09-06T04:52:56;17.60;99.90
36186;DHT22;22228;53.222;7.446;2022-09-06T04:55:17;17.60;99.90
36186;DHT22;22228;53.222;7.446;2022-09-06T04:57:37;17.60;99.90
36186;DHT22;22228;53.222;7.446;2022-09-06T04:59:58;17.60;99.90
36186;DHT22;22228;53.222;7.446;2022-09-06T05:02:20;17.50;99.90
36186;DHT22;22228;53.222;7.446;2022-09-06T05:04:40;17.40;99.90
36186;DHT22;22228;53.222;7.446;2022-09-06T05:07:01;17.20;99.90
36186;DHT22;22228;53.222;7.446;2022-09-06T05:09:22;17.10;99.90
36186;DHT22;22228;53.222;7.446;2022-09-06T05:11:43;17.00;99.90
36186;DHT22;22228;53.222;7.446;2022-09-06T05:14:03;17.00;99.90
36186;DHT22;22228;53.222;7.446;2022-09-06T05:16:24;16.90;99.90
36186;DHT22;22228;53.222;7.446;2022-09-06T05:18:46;16.90;99.90
36186;DHT22;22228;53.222;7.446;2022-09-06T05:21:07;16.90;99.90
36186;DHT22;22228;53.222;7.446;2022-09-06T05:23:28;16.90;99.90
36186;DHT22;22228;53.222;7.446;2022-09-06T05:25:48;16.90;99.90
36186;DHT22;22228;53.222;7.446;2022-09-06T05:28:09;16.90;99.90
36186;DHT22;22228;53.222;7.446;2022-09-06T05:30:29;17.00;99.90
36186;DHT22;22228;53.222;7.446;2022-09-06T05:32:50;17.00;99.90
36186;DHT22;22228;53.222;7.446;2022-09-06T05:35:12;17.00;99.90
36186;DHT22;22228;53.222;7.446;2022-09-06T05:37:32;17.00;99.90
36186;DHT22;22228;53.222;7.446;2022-09-06T05:39:52;17.00;99.90
36186;DHT22;22228;53.222;7.446;2022-09-06T05:42:13;17.10;99.90
36186;DHT22;22228;53.222;7.446;2022-09-06T05:44:34;17.10;99.90
36186;DHT22;22228;53.222;7.446;2022-09-06T05:46:54;17.10;99.90
36186;DHT22;22228;53.222;7.446;2022-09-06T05:49:14;17.20;99.90
36186;DHT22;22228;53.222;7.446;2022-09-06T05:51:36;17.10;99.90
36186;DHT22;22228;53.222;7.446;2022-09-06T05:53:57;17.10;99.90
36186;DHT22;22228;53.222;7.446;2022-09-06T05:56:17;17.10;99.90
36186;DHT22;22228;53.222;7.446;2022-09-06T05:58:37;17.10;99.90
36186;DHT22;22228;53.222;7.446;2022-09-06T06:01:06;17.10;99.90
36186;DHT22;22228;53.222;7.446;2022-09-06T06:03:27;17.10;99.90
36186;DHT22;22228;53.222;7.446;2022-09-06T06:05:47;17.10;99.90
36186;DHT22;22228;53.222;7.446;2022-09-06T06:08:09;17.10;99.90
36186;DHT22;22228;53.222;7.446;2022-09-06T06:10:29;17.10;99.90
36186;DHT22;22228;53.222;7.446;2022-09-06T06:12:50;17.10;99.90
36186;DHT22;22228;53.222;7.446;2022-09-06T06:15:11;17.20;99.90
36186;DHT22;22228;53.222;7.446;2022-09-06T06:17:31;17.20;99.90
36186;DHT22;22228;53.222;7.446;2022-09-06T06:19:52;17.20;99.90
36186;DHT22;22228;53.222;7.446;2022-09-06T06:22:12;17.20;99.90
36186;DHT22;22228;53.222;7.446;2022-09-06T06:24:34;17.20;99.90
36186;DHT22;22228;53.222;7.446;2022-09-06T06:26:55;17.30;99.90
36186;DHT22;22228;53.222;7.446;2022-09-06T06:29:16;17.30;99.90
36186;DHT22;22228;53.222;7.446;2022-09-06T06:31:37;17.30;99.90
36186;DHT22;22228;53.222;7.446;2022-09-06T06:33:58;17.40;99.90
36186;DHT22;22228;53.222;7.446;2022-09-06T06:36:22;17.40;99.90
36186;DHT22;22228;53.222;7.446;2022-09-06T06:38:44;17.40;99.90
36186;DHT22;22228;53.222;7.446;2022-09-06T06:41:08;17.50;99.90
36186;DHT22;22228;53.222;7.446;2022-09-06T06:43:28;17.50;99.90
36186;DHT22;22228;53.222;7.446;2022-09-06T06:45:54;17.50;99.90
36186;DHT22;22228;53.222;7.446;2022-09-06T06:48:15;17.60;99.90
36186;DHT22;22228;53.222;7.446;2022-09-06T06:50:35;17.70;99.90
36186;DHT22;22228;53.222;7.446;2022-09-06T06:52:56;17.70;99.90
36186;DHT22;22228;53.222;7.446;2022-09-06T06:55:17;17.70;99.90
36186;DHT22;22228;53.222;7.446;2022-09-06T06:57:39;17.80;99.90
36186;DHT22;22228;53.222;7.446;2022-09-06T06:59:59;17.80;99.90
36186;DHT22;22228;53.222;7.446;2022-09-06T07:02:22;17.90;99.90
36186;DHT22;22228;53.222;7.446;2022-09-06T07:04:43;17.90;99.90
36186;DHT22;22228;53.222;7.446;2022-09-06T07:07:04;18.00;99.90
36186;DHT22;22228;53.222;7.446;2022-09-06T07:09:24;18.10;99.90
36186;DHT22;22228;53.222;7.446;2022-09-06T07:11:45;18.20;99.90
36186;DHT22;22228;53.222;7.446;2022-09-06T07:14:08;18.20;99.90
36186;DHT22;22228;53.222;7.446;2022-09-06T07:16:28;18.30;99.90
36186;DHT22;22228;53.222;7.446;2022-09-06T07:18:50;18.30;99.90
36186;DHT22;22228;53.222;7.446;2022-09-06T07:21:11;18.40;99.90
36186;DHT22;22228;53.222;7.446;2022-09-06T07:23:32;18.40;99.90
36186;DHT22;22228;53.222;7.446;2022-09-06T07:25:52;18.50;99.90
36186;DHT22;22228;53.222;7.446;2022-09-06T07:28:13;18.50;99.90
36186;DHT22;22228;53.222;7.446;2022-09-06T07:30:36;18.60;99.90
36186;DHT22;22228;53.222;7.446;2022-09-06T07:32:57;18.60;99.90
36186;DHT22;22228;53.222;7.446;2022-09-06T07:35:18;18.60;99.90
36186;DHT22;22228;53.222;7.446;2022-09-06T07:37:39;18.60;99.90
36186;DHT22;22228;53.222;7.446;2022-09-06T07:39:59;18.70;99.90
36186;DHT22;22228;53.222;7.446;2022-09-06T07:42:19;18.60;99.90
36186;DHT22;22228;53.222;7.446;2022-09-06T07:44:40;18.70;99.90
36186;DHT22;22228;53.222;7.446;2022-09-06T07:47:02;18.70;99.90
36186;DHT22;22228;53.222;7.446;2022-09-06T07:49:24;18.80;99.90
36186;DHT22;22228;53.222;7.446;2022-09-06T07:51:46;18.90;99.90
36186;DHT22;22228;53.222;7.446;2022-09-06T07:54:07;19.00;99.90
36186;DHT22;22228;53.222;7.446;2022-09-06T07:56:27;19.10;99.90
36186;DHT22;22228;53.222;7.446;2022-09-06T07:58:49;19.10;99.90
36186;DHT22;22228;53.222;7.446;2022-09-06T08:03:53;19.30;99.90
36186;DHT22;22228;53.222;7.446;2022-09-06T08:06:13;19.40;99.90
36186;DHT22;22228;53.222;7.446;2022-09-06T08:08:34;19.50;99.90
36186;DHT22;22228;53.222;7.446;2022-09-06T08:10:55;19.70;99.90
36186;DHT22;22228;53.222;7.446;2022-09-06T08:13:15;19.80;99.90
36186;DHT22;22228;53.222;7.446;2022-09-06T08:15:36;20.00;99.90
36186;DHT22;22228;53.222;7.446;2022-09-06T08:17:56;20.00;99.90
36186;DHT22;22228;53.222;7.446;2022-09-06T08:20:18;20.10;99.90
36186;DHT22;22228;53.222;7.446;2022-09-06T08:22:39;20.20;99.90
36186;DHT22;22228;53.222;7.446;2022-09-06T08:24:59;20.30;99.90
36186;DHT22;22228;53.222;7.446;2022-09-06T08:27:20;20.40;99.90
36186;DHT22;22228;53.222;7.446;2022-09-06T08:29:40;20.40;99.90
36186;DHT22;22228;53.222;7.446;2022-09-06T08:32:01;20.40;99.90
36186;DHT22;22228;53.222;7.446;2022-09-06T08:34:21;20.40;99.90
36186;DHT22;22228;53.222;7.446;2022-09-06T08:36:43;20.40;99.90
36186;DHT22;22228;53.222;7.446;2022-09-06T08:39:06;20.40;99.90
36186;DHT22;22228;53.222;7.446;2022-09-06T08:41:31;20.20;99.90
36186;DHT22;22228;53.222;7.446;2022-09-06T08:43:53;20.10;99.90
36186;DHT22;22228;53.222;7.446;2022-09-06T08:46:17;20.00;99.90
36186;DHT22;22228;53.222;7.446;2022-09-06T08:48:39;20.00;99.90
36186;DHT22;22228;53.222;7.446;2022-09-06T08:53:47;19.80;99.90
36186;DHT22;22228;53.222;7.446;2022-09-06T08:56:12;19.80;99.90
36186;DHT22;22228;53.222;7.446;2022-09-06T08:58:49;19.90;99.90
36186;DHT22;22228;53.222;7.446;2022-09-06T09:01:18;19.90;99.90
36186;DHT22;22228;53.222;7.446;2022-09-06T09:03:43;19.90;99.90
36186;DHT22;22228;53.222;7.446;2022-09-06T09:06:07;20.00;99.90
36186;DHT22;22228;53.222;7.446;2022-09-06T09:08:33;20.00;99.90
36186;DHT22;22228;53.222;7.446;2022-09-06T09:11:01;20.10;99.90
36186;DHT22;22228;53.222;7.446;2022-09-06T09:13:25;20.20;99.90
36186;DHT22;22228;53.222;7.446;2022-09-06T09:15:47;20.20;99.90
36186;DHT22;22228;53.222;7.446;2022-09-06T09:18:07;20.30;99.90
36186;DHT22;22228;53.222;7.446;2022-09-06T09:20:28;20.30;99.90
36186;DHT22;22228;53.222;7.446;2022-09-06T09:22:48;20.30;99.90
36186;DHT22;22228;53.222;7.446;2022-09-06T09:25:13;20.40;99.90
36186;DHT22;22228;53.222;7.446;2022-09-06T09:27:37;20.50;99.90
36186;DHT22;22228;53.222;7.446;2022-09-06T09:30:01;20.60;99.90
36186;DHT22;22228;53.222;7.446;2022-09-06T09:32:29;20.60;99.90
36186;DHT22;22228;53.222;7.446;2022-09-06T09:34:50;20.60;99.90
36186;DHT22;22228;53.222;7.446;2022-09-06T09:37:12;20.70;99.90
36186;DHT22;22228;53.222;7.446;2022-09-06T09:39:37;20.80;99.90
36186;DHT22;22228;53.222;7.446;2022-09-06T09:41:58;21.00;99.90
36186;DHT22;22228;53.222;7.446;2022-09-06T09:44:20;21.20;99.90
36186;DHT22;22228;53.222;7.446;2022-09-06T09:46:46;21.40;99.90
36186;DHT22;22228;53.222;7.446;2022-09-06T09:49:08;21.50;99.90
36186;DHT22;22228;53.222;7.446;2022-09-06T09:51:30;21.50;99.90
36186;DHT22;22228;53.222;7.446;2022-09-06T09:53:52;21.40;99.90
36186;DHT22;22228;53.222;7.446;2022-09-06T09:56:14;21.20;99.90
36186;DHT22;22228;53.222;7.446;2022-09-06T09:58:35;21.00;99.90
36186;DHT22;22228;53.222;7.446;2022-09-06T10:01:14;20.90;99.90
36186;DHT22;22228;53.222;7.446;2022-09-06T10:03:36;20.80;99.90
36186;DHT22;22228;53.222;7.446;2022-09-06T10:05:58;20.90;99.90
36186;DHT22;22228;53.222;7.446;2022-09-06T10:08:22;20.90;99.90
36186;DHT22;22228;53.222;7.446;2022-09-06T10:10:46;20.90;99.90
36186;DHT22;22228;53.222;7.446;2022-09-06T10:13:17;20.90;99.90
36186;DHT22;22228;53.222;7.446;2022-09-06T10:15:39;21.00;99.90
36186;DHT22;22228;53.222;7.446;2022-09-06T10:18:01;21.10;99.90
36186;DHT22;22228;53.222;7.446;2022-09-06T10:20:34;21.20;99.90
36186;DHT22;22228;53.222;7.446;2022-09-06T10:23:00;21.30;99.90
36186;DHT22;22228;53.222;7.446;2022-09-06T10:25:39;21.30;99.90
36186;DHT22;22228;53.222;7.446;2022-09-06T10:28:27;21.50;99.90
36186;DHT22;22228;53.222;7.446;2022-09-06T10:30:59;21.60;99.90
36186;DHT22;22228;53.222;7.446;2022-09-06T10:33:29;21.70;99.90
36186;DHT22;22228;53.222;7.446;2022-09-06T10:35:56;21.90;99.90
36186;DHT22;22228;53.222;7.446;2022-09-06T10:38:30;21.90;99.90
36186;DHT22;22228;53.222;7.446;2022-09-06T10:41:02;22.00;99.90
36186;DHT22;22228;53.222;7.446;2022-09-06T10:43:34;22.20;99.90
36186;DHT22;22228;53.222;7.446;2022-09-06T10:46:02;22.30;99.90
36186;DHT22;22228;53.222;7.446;2022-09-06T10:48:29;22.50;99.90
36186;DHT22;22228;53.222;7.446;2022-09-06T10:50:52;22.60;99.90
36186;DHT22;22228;53.222;7.446;2022-09-06T10:53:18;22.70;99.90
36186;DHT22;22228;53.222;7.446;2022-09-06T10:55:44;22.90;99.90
36186;DHT22;22228;53.222;7.446;2022-09-06T10:58:09;23.10;99.90
36186;DHT22;22228;53.222;7.446;2022-09-06T11:00:33;23.30;99.90
36186;DHT22;22228;53.222;7.446;2022-09-06T11:03:02;23.40;99.90
36186;DHT22;22228;53.222;7.446;2022-09-06T11:05:30;23.80;99.90
36186;DHT22;22228;53.222;7.446;2022-09-06T11:07:55;24.10;99.90
36186;DHT22;22228;53.222;7.446;2022-09-06T11:10:22;24.20;99.90
36186;DHT22;22228;53.222;7.446;2022-09-06T11:12:48;24.60;99.90
36186;DHT22;22228;53.222;7.446;2022-09-06T11:15:12;24.50;99.90
36186;DHT22;22228;53.222;7.446;2022-09-06T11:17:36;24.40;99.90
36186;DHT22;22228;53.222;7.446;2022-09-06T11:20:03;24.10;99.90
36186;DHT22;22228;53.222;7.446;2022-09-06T11:22:51;23.90;99.90
36186;DHT22;22228;53.222;7.446;2022-09-06T11:28:10;23.50;99.90
36186;DHT22;22228;53.222;7.446;2022-09-06T11:30:33;23.40;99.90
36186;DHT22;22228;53.222;7.446;2022-09-06T11:33:06;23.40;99.90
36186;DHT22;22228;53.222;7.446;2022-09-06T11:35:31;23.30;99.90
36186;DHT22;22228;53.222;7.446;2022-09-06T11:38:00;23.30;99.90
36186;DHT22;22228;53.222;7.446;2022-09-06T11:40:23;23.20;99.90
36186;DHT22;22228;53.222;7.446;2022-09-06T11:43:08;23.20;99.90
36186;DHT22;22228;53.222;7.446;2022-09-06T11:45:39;23.30;99.90
36186;DHT22;22228;53.222;7.446;2022-09-06T11:48:32;23.30;99.90
36186;DHT22;22228;53.222;7.446;2022-09-06T11:50:58;23.40;99.90
36186;DHT22;22228;53.222;7.446;2022-09-06T11:53:21;23.40;99.90
36186;DHT22;22228;53.222;7.446;2022-09-06T11:55:44;23.40;99.90
36186;DHT22;22228;53.222;7.446;2022-09-06T11:58:09;23.40;99.90
36186;DHT22;22228;53.222;7.446;2022-09-06T12:00:30;23.40;99.90
36186;DHT22;22228;53.222;7.446;2022-09-06T12:02:51;23.50;99.90
36186;DHT22;22228;53.222;7.446;2022-09-06T12:05:26;23.50;99.90
36186;DHT22;22228;53.222;7.446;2022-09-06T12:08:14;23.50;99.90
36186;DHT22;22228;53.222;7.446;2022-09-06T12:10:55;23.60;99.90
36186;DHT22;22228;53.222;7.446;2022-09-06T12:13:42;23.60;99.90
36186;DHT22;22228;53.222;7.446;2022-09-06T12:16:07;23.70;99.90
36186;DHT22;22228;53.222;7.446;2022-09-06T12:18:54;23.70;99.90
36186;DHT22;22228;53.222;7.446;2022-09-06T12:21:35;23.80;99.90
36186;DHT22;22228;53.222;7.446;2022-09-06T12:23:56;23.80;99.90
36186;DHT22;22228;53.222;7.446;2022-09-06T12:26:46;23.90;99.90
36186;DHT22;22228;53.222;7.446;2022-09-06T12:29:10;24.00;99.90
36186;DHT22;22228;53.222;7.446;2022-09-06T12:31:35;24.00;99.90
36186;DHT22;22228;53.222;7.446;2022-09-06T12:33:57;24.10;99.90
36186;DHT22;22228;53.222;7.446;2022-09-06T12:36:19;24.10;99.90
36186;DHT22;22228;53.222;7.446;2022-09-06T12:38:53;24.10;99.90
36186;DHT22;22228;53.222;7.446;2022-09-06T12:41:13;24.10;99.90
36186;DHT22;22228;53.222;7.446;2022-09-06T12:43:37;24.20;99.90
36186;DHT22;22228;53.222;7.446;2022-09-06T12:45:58;24.20;99.90
36186;DHT22;22228;53.222;7.446;2022-09-06T12:48:26;24.30;99.90
36186;DHT22;22228;53.222;7.446;2022-09-06T12:50:59;24.30;99.90
36186;DHT22;22228;53.222;7.446;2022-09-06T12:53:22;24.40;99.90
36186;DHT22;22228;53.222;7.446;2022-09-06T12:55:44;24.40;99.90
36186;DHT22;22228;53.222;7.446;2022-09-06T12:58:07;24.60;99.90
36186;DHT22;22228;53.222;7.446;2022-09-06T13:00:31;24.80;99.90
36186;DHT22;22228;53.222;7.446;2022-09-06T13:02:59;25.00;99.90
36186;DHT22;22228;53.222;7.446;2022-09-06T13:05:22;26.10;99.90
36186;DHT22;22228;53.222;7.446;2022-09-06T13:07:47;27.60;99.90
36186;DHT22;22228;53.222;7.446;2022-09-06T13:10:09;28.60;99.90
36186;DHT22;22228;53.222;7.446;2022-09-06T13:12:33;29.80;99.90
36186;DHT22;22228;53.222;7.446;2022-09-06T13:14:55;30.90;99.90
36186;DHT22;22228;53.222;7.446;2022-09-06T13:17:24;31.80;99.90
36186;DHT22;22228;53.222;7.446;2022-09-06T13:19:44;32.70;99.90
36186;DHT22;22228;53.222;7.446;2022-09-06T13:22:07;32.90;99.90
36186;DHT22;22228;53.222;7.446;2022-09-06T13:24:41;32.90;99.90
36186;DHT22;22228;53.222;7.446;2022-09-06T13:27:31;32.90;99.90
36186;DHT22;22228;53.222;7.446;2022-09-06T13:29:56;32.80;99.90
36186;DHT22;22228;53.222;7.446;2022-09-06T13:32:17;32.90;99.90
36186;DHT22;22228;53.222;7.446;2022-09-06T13:34:48;33.40;99.90
36186;DHT22;22228;53.222;7.446;2022-09-06T13:37:10;33.80;99.90
36186;DHT22;22228;53.222;7.446;2022-09-06T13:39:33;34.10;99.90
36186;DHT22;22228;53.222;7.446;2022-09-06T13:41:54;34.60;99.90
36186;DHT22;22228;53.222;7.446;2022-09-06T13:44:18;34.60;99.90
36186;DHT22;22228;53.222;7.446;2022-09-06T13:46:39;34.30;99.90
36186;DHT22;22228;53.222;7.446;2022-09-06T13:48:59;34.50;99.90
36186;DHT22;22228;53.222;7.446;2022-09-06T13:51:21;34.20;99.90
36186;DHT22;22228;53.222;7.446;2022-09-06T13:53:42;33.60;99.90
36186;DHT22;22228;53.222;7.446;2022-09-06T13:56:03;33.80;99.90
36186;DHT22;22228;53.222;7.446;2022-09-06T13:58:27;33.80;99.90
36186;DHT22;22228;53.222;7.446;2022-09-06T14:00:48;33.80;99.90
36186;DHT22;22228;53.222;7.446;2022-09-06T14:03:12;33.90;99.90
36186;DHT22;22228;53.222;7.446;2022-09-06T14:05:33;34.10;99.90
36186;DHT22;22228;53.222;7.446;2022-09-06T14:07:58;34.40;99.90
36186;DHT22;22228;53.222;7.446;2022-09-06T14:10:18;34.40;99.90
36186;DHT22;22228;53.222;7.446;2022-09-06T14:12:42;34.30;99.90
36186;DHT22;22228;53.222;7.446;2022-09-06T14:15:03;34.10;99.90
36186;DHT22;22228;53.222;7.446;2022-09-06T14:17:24;34.10;99.90
36186;DHT22;22228;53.222;7.446;2022-09-06T14:19:44;34.30;99.90
36186;DHT22;22228;53.222;7.446;2022-09-06T14:22:04;34.50;99.90
36186;DHT22;22228;53.222;7.446;2022-09-06T14:24:26;34.90;99.90
36186;DHT22;22228;53.222;7.446;2022-09-06T14:26:47;35.30;99.90
36186;DHT22;22228;53.222;7.446;2022-09-06T14:29:07;35.00;99.90
36186;DHT22;22228;53.222;7.446;2022-09-06T14:31:28;34.40;99.90
36186;DHT22;22228;53.222;7.446;2022-09-06T14:33:51;34.60;99.90
36186;DHT22;22228;53.222;7.446;2022-09-06T14:36:12;34.80;99.90
36186;DHT22;22228;53.222;7.446;2022-09-06T14:38:35;34.70;99.90
36186;DHT22;22228;53.222;7.446;2022-09-06T14:41:02;35.10;99.90
36186;DHT22;22228;53.222;7.446;2022-09-06T14:43:23;35.60;99.90
36186;DHT22;22228;53.222;7.446;2022-09-06T14:45:44;35.50;99.90
36186;DHT22;22228;53.222;7.446;2022-09-06T14:48:04;35.40;99.90
36186;DHT22;22228;53.222;7.446;2022-09-06T14:50:25;35.10;99.90
36186;DHT22;22228;53.222;7.446;2022-09-06T14:52:46;34.90;99.90
36186;DHT22;22228;53.222;7.446;2022-09-06T14:55:10;34.60;99.90
36186;DHT22;22228;53.222;7.446;2022-09-06T14:57:34;34.90;99.90
36186;DHT22;22228;53.222;7.446;2022-09-06T14:59:55;35.00;99.90
36186;DHT22;22228;53.222;7.446;2022-09-06T15:02:16;35.40;99.90
36186;DHT22;22228;53.222;7.446;2022-09-06T15:04:37;36.10;99.90
36186;DHT22;22228;53.222;7.446;2022-09-06T15:06:57;35.90;99.90
36186;DHT22;22228;53.222;7.446;2022-09-06T15:09:19;35.80;99.90
36186;DHT22;22228;53.222;7.446;2022-09-06T15:11:41;35.40;99.90
36186;DHT22;22228;53.222;7.446;2022-09-06T15:14:05;35.10;99.90
36186;DHT22;22228;53.222;7.446;2022-09-06T15:16:27;35.00;99.90